createdAt,value
2019-03-27T00:00:01.164Z,101894.76
2019-03-27T00:02:35.598Z,101895.90
2019-03-27T00:05:11.822Z,101892.98
2019-03-27T00:07:44.648Z,101890.98
2019-03-27T00:10:24.252Z,101889.66
2019-03-27T00:12:59.412Z,101894.97
2019-03-27T00:15:32.407Z,101902.55
2019-03-27T00:18:05.266Z,101896.05
2019-03-27T00:20:41.234Z,101900.27
2019-03-27T00:23:14.080Z,101897.41
2019-03-27T00:25:48.645Z,101899.41
2019-03-27T00:28:25.916Z,101901.24
2019-03-27T00:30:59.910Z,101899.25
2019-03-27T00:33:39.801Z,101902.97
2019-03-27T00:36:12.229Z,101902.08
2019-03-27T00:38:45.847Z,101901.02
2019-03-27T00:41:37.244Z,101899.65
2019-03-27T00:44:10.344Z,101908.37
2019-03-27T00:46:43.117Z,101919.19
2019-03-27T00:49:15.943Z,101917.27
2019-03-27T00:51:48.644Z,101916.55
2019-03-27T00:54:22.503Z,101920.65
2019-03-27T00:56:55.201Z,101917.22
2019-03-27T00:59:27.904Z,101913.74
2019-03-27T01:02:00.571Z,101924.55
2019-03-27T01:04:33.226Z,101921.12
2019-03-27T01:07:06.116Z,101915.48
2019-03-27T01:09:39.081Z,101922.30
2019-03-27T01:12:11.775Z,101923.02
2019-03-27T01:14:44.564Z,101924.97
2019-03-27T01:17:17.242Z,101924.83
2019-03-27T01:19:50.033Z,101921.10
2019-03-27T01:22:22.763Z,101919.13
2019-03-27T01:24:55.460Z,101917.03
2019-03-27T01:27:28.222Z,101916.36
2019-03-27T01:30:00.920Z,101924.77
2019-03-27T01:32:33.636Z,101929.03
2019-03-27T01:35:06.470Z,101931.56
2019-03-27T01:37:39.139Z,101932.13
2019-03-27T01:40:13.362Z,101928.44
2019-03-27T01:42:46.139Z,101934.34
2019-03-27T01:45:18.911Z,101941.16
2019-03-27T01:47:52.677Z,101932.14
2019-03-27T01:50:25.517Z,101933.86
2019-03-27T01:52:58.195Z,101930.28
2019-03-27T01:55:30.903Z,101929.80
2019-03-27T01:58:03.633Z,101928.11
2019-03-27T02:00:36.407Z,101930.92
2019-03-27T02:03:09.057Z,101929.20
2019-03-27T02:05:41.840Z,101926.38
2019-03-27T02:08:14.480Z,101929.19
2019-03-27T02:10:47.255Z,101933.52
2019-03-27T02:13:19.907Z,101935.88
2019-03-27T02:16:05.924Z,101940.05
2019-03-27T02:18:26.989Z,101944.37
2019-03-27T02:20:59.763Z,101943.61
2019-03-27T02:23:32.737Z,101936.83
2019-03-27T02:26:05.499Z,101947.27
2019-03-27T02:28:38.327Z,101942.17
2019-03-27T02:34:58.361Z,101945.14
2019-03-27T02:41:38.000Z,101955.63
2019-03-27T02:44:10.691Z,101961.33
2019-03-27T02:46:43.399Z,101966.00
2019-03-27T02:49:16.120Z,101960.22
2019-03-27T02:51:48.856Z,101966.95
2019-03-27T02:54:21.672Z,101959.77
2019-03-27T02:56:54.432Z,101959.13
2019-03-27T02:59:27.116Z,101969.48
2019-03-27T03:01:59.860Z,101965.73
2019-03-27T03:04:33.833Z,101976.66
2019-03-27T03:07:06.802Z,101972.45
2019-03-27T03:09:39.572Z,101966.45
2019-03-27T03:12:12.293Z,101969.15
2019-03-27T03:14:45.068Z,101973.45
2019-03-27T03:17:17.870Z,101972.77
2019-03-27T03:19:50.663Z,101971.64
2019-03-27T03:22:23.351Z,101970.87
2019-03-27T03:24:56.055Z,101968.67
2019-03-27T03:27:28.928Z,101967.96
2019-03-27T03:30:01.791Z,101971.20
2019-03-27T03:32:35.592Z,101976.00
2019-03-27T03:35:08.630Z,101980.21
2019-03-27T03:37:41.362Z,101980.45
2019-03-27T03:40:16.094Z,101975.56
2019-03-27T03:42:48.870Z,101982.15
2019-03-27T03:45:21.648Z,101988.20
2019-03-27T03:47:54.358Z,101988.08
2019-03-27T03:50:44.777Z,101992.41
2019-03-27T03:53:17.780Z,101990.02
2019-03-27T03:55:51.628Z,101989.13
2019-03-27T03:58:27.092Z,101985.83
2019-03-27T04:01:02.047Z,101998.23
2019-03-27T04:03:37.362Z,102002.14
2019-03-27T04:06:10.034Z,102004.00
2019-03-27T04:08:42.852Z,102002.25
2019-03-27T04:11:15.652Z,101998.48
2019-03-27T04:13:48.417Z,101997.52
2019-03-27T04:16:21.150Z,101996.16
2019-03-27T04:18:53.877Z,101991.89
2019-03-27T04:21:27.092Z,101991.77
2019-03-27T04:24:00.069Z,101995.87
2019-03-27T04:26:33.984Z,101996.78
2019-03-27T04:29:06.632Z,101994.09
2019-03-27T04:31:39.754Z,101997.20
2019-03-27T04:34:12.522Z,101995.14
2019-03-27T04:36:45.316Z,102005.58
2019-03-27T04:39:17.968Z,102000.27
2019-03-27T04:41:50.679Z,102004.34
2019-03-27T04:44:23.379Z,102002.74
2019-03-27T04:46:56.174Z,102004.05
2019-03-27T04:49:28.907Z,102015.89
2019-03-27T04:52:01.657Z,102014.64
2019-03-27T04:54:34.391Z,102017.92
2019-03-27T04:57:08.082Z,102022.61
2019-03-27T04:59:40.738Z,102019.58
2019-03-27T05:02:13.438Z,102014.55
2019-03-27T05:04:47.127Z,102019.10
2019-03-27T05:07:22.624Z,102021.66
2019-03-27T05:09:57.574Z,102027.54
2019-03-27T05:12:30.602Z,102035.30
2019-03-27T05:15:05.038Z,102034.05
2019-03-27T05:17:45.644Z,102029.16
2019-03-27T05:20:16.237Z,102035.03
2019-03-27T05:22:49.490Z,102037.61
2019-03-27T05:25:42.099Z,102036.20
2019-03-27T05:28:15.979Z,102035.09
2019-03-27T05:30:54.819Z,102034.73
2019-03-27T05:33:32.851Z,102034.37
2019-03-27T05:36:13.376Z,102031.64
2019-03-27T05:38:47.287Z,102031.94
2019-03-27T05:41:25.110Z,102044.94
2019-03-27T05:43:58.391Z,102051.19
2019-03-27T05:46:32.416Z,102048.11
2019-03-27T05:49:07.963Z,102055.03
2019-03-27T05:51:42.976Z,101984.41
2019-03-27T05:54:15.979Z,102064.73
2019-03-27T05:56:49.033Z,102067.25
2019-03-27T05:59:21.803Z,102070.23
2019-03-27T06:01:54.716Z,102070.81
2019-03-27T06:04:27.407Z,102067.94
2019-03-27T06:07:00.126Z,102072.73
2019-03-27T06:09:33.949Z,102076.22
2019-03-27T06:12:06.686Z,102076.59
2019-03-27T06:14:39.353Z,102071.77
2019-03-27T06:17:12.031Z,102074.37
2019-03-27T06:19:44.761Z,102073.30
2019-03-27T06:22:17.468Z,102073.40
2019-03-27T06:24:50.213Z,102068.66
2019-03-27T06:27:22.942Z,102063.52
2019-03-27T06:29:55.633Z,102068.48
2019-03-27T06:32:28.350Z,102069.64
2019-03-27T06:35:01.245Z,102079.16
2019-03-27T06:37:34.045Z,102085.80
2019-03-27T06:40:09.505Z,102079.42
2019-03-27T06:42:42.270Z,102078.28
2019-03-27T06:45:15.549Z,102078.22
2019-03-27T06:47:48.218Z,102088.22
2019-03-27T06:50:20.991Z,102095.20
2019-03-27T06:52:53.787Z,102093.55
2019-03-27T06:55:26.741Z,102091.44
2019-03-27T06:58:00.005Z,102089.70
2019-03-27T07:00:39.754Z,102082.25
2019-03-27T07:03:12.471Z,102089.44
2019-03-27T07:05:45.214Z,102090.44
2019-03-27T07:08:17.937Z,102090.78
2019-03-27T07:10:50.753Z,102089.88
2019-03-27T07:13:23.493Z,102090.50
2019-03-27T07:15:56.146Z,102087.56
2019-03-27T07:18:39.458Z,102091.05
2019-03-27T07:21:03.450Z,102092.42
2019-03-27T07:23:36.313Z,102098.29
2019-03-27T07:26:08.977Z,102107.67
2019-03-27T07:28:41.763Z,102099.80
2019-03-27T07:31:14.450Z,102105.89
2019-03-27T07:33:47.116Z,102103.72
2019-03-27T07:36:19.797Z,102112.32
2019-03-27T07:38:52.560Z,102115.05
2019-03-27T07:41:25.291Z,102124.21
2019-03-27T07:43:58.041Z,102118.98
2019-03-27T07:46:30.790Z,102130.13
2019-03-27T07:49:03.467Z,102122.72
2019-03-27T07:51:36.148Z,102120.55
2019-03-27T07:54:08.909Z,102129.32
2019-03-27T07:56:41.631Z,102126.05
2019-03-27T07:59:14.340Z,102130.52
2019-03-27T08:01:47.013Z,102136.25
2019-03-27T08:04:19.674Z,102135.94
2019-03-27T08:06:52.387Z,102131.97
2019-03-27T08:09:25.163Z,102133.23
2019-03-27T08:11:57.891Z,102127.64
2019-03-27T08:14:30.609Z,102131.27
2019-03-27T08:17:03.405Z,102126.66
2019-03-27T08:19:36.129Z,102127.03
2019-03-27T08:22:08.893Z,102129.93
2019-03-27T08:24:41.575Z,102135.45
2019-03-27T08:27:14.624Z,102133.20
2019-03-27T08:29:47.575Z,102140.67
2019-03-27T08:32:20.642Z,102136.00
2019-03-27T08:34:53.529Z,102138.41
2019-03-27T08:37:26.636Z,102140.34
2019-03-27T08:39:59.440Z,102147.69
2019-03-27T08:42:32.095Z,102144.00
2019-03-27T08:45:05.020Z,102148.76
2019-03-27T08:47:37.744Z,102151.85
2019-03-27T08:50:13.649Z,102146.75
2019-03-27T08:52:46.400Z,102146.95
2019-03-27T08:55:19.172Z,102145.30
2019-03-27T08:57:52.052Z,102148.93
2019-03-27T09:00:47.589Z,102157.48
2019-03-27T09:03:20.805Z,102151.81
2019-03-27T09:05:53.488Z,102150.72
2019-03-27T09:08:26.142Z,102150.75
2019-03-27T09:10:58.877Z,102153.36
2019-03-27T09:13:31.690Z,102152.63
2019-03-27T09:16:04.465Z,102156.45
2019-03-27T09:18:37.263Z,102164.23
2019-03-27T09:21:11.200Z,102161.08
2019-03-27T09:23:45.690Z,102156.20
2019-03-27T09:26:18.604Z,102161.83
2019-03-27T09:28:51.313Z,102168.33
2019-03-27T09:31:23.972Z,102163.92
2019-03-27T09:33:56.756Z,102167.27
2019-03-27T09:36:29.393Z,102170.75
2019-03-27T09:39:02.148Z,102163.19
2019-03-27T09:41:35.230Z,102161.96
2019-03-27T09:44:07.894Z,102169.20
2019-03-27T09:46:40.617Z,102175.28
2019-03-27T09:49:13.402Z,102171.42
2019-03-27T09:51:46.058Z,102175.96
2019-03-27T09:54:18.773Z,102170.89
2019-03-27T09:56:51.419Z,102173.83
2019-03-27T09:59:24.108Z,102180.30
2019-03-27T10:01:56.769Z,102175.96
2019-03-27T10:04:29.481Z,102181.20
2019-03-27T10:07:02.114Z,102180.95
2019-03-27T10:09:34.838Z,102178.19
2019-03-27T10:12:09.220Z,102176.31
2019-03-27T10:14:42.030Z,102177.09
2019-03-27T10:17:14.754Z,102173.94
2019-03-27T10:20:02.757Z,102178.08
2019-03-27T10:22:24.625Z,102166.33
2019-03-27T10:24:57.327Z,102165.94
2019-03-27T10:27:30.022Z,102168.98
2019-03-27T10:30:02.761Z,102167.06
2019-03-27T10:32:35.795Z,102169.84
2019-03-27T10:35:09.081Z,102171.73
2019-03-27T10:37:45.602Z,102169.42
2019-03-27T10:40:18.133Z,102174.69
2019-03-27T10:42:50.936Z,102172.11
2019-03-27T10:45:23.753Z,102172.52
2019-03-27T10:47:59.034Z,102164.99
2019-03-27T10:50:32.083Z,102167.53
2019-03-27T10:53:05.123Z,102172.77
2019-03-27T10:55:39.173Z,102173.81
2019-03-27T10:58:16.032Z,102177.75
2019-03-27T11:00:49.207Z,102171.45
2019-03-27T11:03:24.875Z,102180.00
2019-03-27T11:06:00.993Z,102172.03
2019-03-27T11:08:35.461Z,102179.90
2019-03-27T11:11:11.695Z,102179.47
2019-03-27T11:13:46.235Z,102175.14
2019-03-27T11:16:21.179Z,102178.28
2019-03-27T11:18:54.295Z,102176.95
2019-03-27T11:21:27.283Z,102176.95
2019-03-27T11:24:00.533Z,102172.97
2019-03-27T11:26:33.407Z,102176.49
2019-03-27T11:29:06.552Z,102182.70
2019-03-27T11:31:39.369Z,102179.23
2019-03-27T11:34:12.525Z,102174.35
2019-03-27T11:36:45.403Z,102176.97
2019-03-27T11:39:18.230Z,102176.44
2019-03-27T11:41:51.085Z,102171.12
2019-03-27T11:44:24.795Z,102174.28
2019-03-27T11:47:01.079Z,102173.86
2019-03-27T11:49:35.175Z,102178.64
2019-03-27T11:52:08.335Z,102176.78
2019-03-27T11:54:53.668Z,102178.53
2019-03-27T11:57:29.928Z,102179.44
2019-03-27T12:00:03.462Z,102175.89
2019-03-27T12:02:40.232Z,102177.64
2019-03-27T12:05:14.360Z,102178.52
2019-03-27T12:07:49.639Z,102177.34
2019-03-27T12:10:23.851Z,102172.96
2019-03-27T12:12:57.083Z,102176.45
2019-03-27T12:15:45.700Z,102177.73
2019-03-27T12:18:20.708Z,102172.37
2019-03-27T12:21:01.939Z,102170.20
2019-03-27T12:23:40.998Z,102172.95
2019-03-27T12:26:27.083Z,102174.79
2019-03-27T12:29:00.749Z,102172.61
2019-03-27T12:31:42.563Z,102173.44
2019-03-27T12:34:15.925Z,102171.25
2019-03-27T12:36:49.202Z,102173.84
2019-03-27T12:39:22.442Z,102170.81
2019-03-27T12:41:58.402Z,102171.59
2019-03-27T12:44:33.132Z,102167.45
2019-03-27T12:47:06.006Z,102165.63
2019-03-27T12:49:38.954Z,102165.13
2019-03-27T12:52:12.096Z,102166.08
2019-03-27T12:54:45.388Z,102162.03
2019-03-27T12:57:18.410Z,102161.36
2019-03-27T12:59:53.593Z,102162.72
2019-03-27T13:02:26.474Z,102159.74
2019-03-27T13:05:04.378Z,102164.59
2019-03-27T13:07:49.374Z,102167.72
2019-03-27T13:10:15.250Z,102162.88
2019-03-27T13:12:48.039Z,102160.67
2019-03-27T13:15:20.986Z,102163.31
2019-03-27T13:17:54.951Z,102160.22
2019-03-27T13:20:27.717Z,102162.44
2019-03-27T13:23:00.663Z,102162.41
2019-03-27T13:25:33.550Z,102156.21
2019-03-27T13:28:14.398Z,102156.97
2019-03-27T13:30:47.630Z,102146.34
2019-03-27T13:33:20.798Z,102155.67
2019-03-27T13:35:55.601Z,102149.53
2019-03-27T13:38:28.838Z,102145.98
2019-03-27T13:41:02.158Z,102146.02
2019-03-27T13:43:35.463Z,102144.25
2019-03-27T13:46:08.871Z,102148.23
2019-03-27T13:48:42.063Z,102145.13
2019-03-27T13:51:15.237Z,102145.16
2019-03-27T13:53:48.731Z,102138.09
2019-03-27T13:56:22.019Z,102142.97
2019-03-27T13:58:56.103Z,102145.17
2019-03-27T14:01:29.891Z,102138.53
2019-03-27T14:04:07.269Z,102138.95
2019-03-27T14:06:40.594Z,102136.75
2019-03-27T14:09:14.130Z,102131.92
2019-03-27T14:11:47.550Z,102129.70
2019-03-27T14:14:20.936Z,102127.94
2019-03-27T14:17:07.442Z,102131.48
2019-03-27T14:19:46.117Z,102121.31
2019-03-27T14:22:21.974Z,102126.61
2019-03-27T14:24:55.256Z,102124.86
2019-03-27T14:27:29.922Z,102123.97
2019-03-27T14:30:13.569Z,102123.09
2019-03-27T14:32:46.784Z,102125.72
2019-03-27T14:35:19.897Z,102127.04
2019-03-27T14:37:52.748Z,102123.48
2019-03-27T14:40:25.679Z,102122.15
2019-03-27T14:42:58.764Z,102128.33
2019-03-27T14:45:31.660Z,102123.91
2019-03-27T14:48:05.638Z,102126.13
2019-03-27T14:50:38.646Z,102126.11
2019-03-27T14:53:12.036Z,102125.23
2019-03-27T14:55:44.841Z,102125.27
2019-03-27T14:58:17.769Z,102121.73
2019-03-27T15:00:51.011Z,102127.48
2019-03-27T15:03:23.919Z,102129.25
2019-03-27T15:05:56.748Z,102121.75
2019-03-27T15:08:32.868Z,102129.68
2019-03-27T15:11:08.138Z,102128.37
2019-03-27T15:13:44.013Z,102127.91
2019-03-27T15:16:16.805Z,102124.36
2019-03-27T15:19:10.835Z,102121.29
2019-03-27T15:21:53.735Z,102120.38
2019-03-27T15:24:29.944Z,102123.47
2019-03-27T15:27:07.593Z,102119.93
2019-03-27T15:29:49.821Z,102122.16
2019-03-27T15:32:28.970Z,102121.67
2019-03-27T15:35:03.594Z,102123.02
2019-03-27T15:37:53.398Z,102122.98
2019-03-27T15:40:46.958Z,102116.39
2019-03-27T15:43:19.991Z,102119.45
2019-03-27T15:45:52.941Z,102115.45
2019-03-27T15:53:31.909Z,102108.45
2019-03-27T15:57:32.359Z,102114.63
2019-03-27T16:00:40.239Z,102110.20
2019-03-27T16:04:11.848Z,102113.74
2019-03-27T16:07:26.823Z,102107.55
2019-03-27T16:14:06.722Z,102113.27
2019-03-27T16:17:27.649Z,102114.98
2019-03-27T16:20:36.077Z,102115.80
2019-03-27T16:26:38.413Z,102125.07
2019-03-27T16:29:36.737Z,102111.83
2019-03-27T16:34:36.034Z,102113.54
2019-03-27T16:36:27.067Z,102108.22
2019-03-27T16:39:30.983Z,102105.11
2019-03-27T16:42:55.578Z,102107.73
2019-03-27T16:45:33.851Z,102115.27
2019-03-27T16:48:24.670Z,102116.14
2019-03-27T16:50:54.208Z,102116.99
2019-03-27T16:54:15.614Z,102121.38
2019-03-27T16:57:37.732Z,102116.52
2019-03-27T17:04:03.345Z,102127.67
2019-03-27T17:12:11.698Z,102135.52
2019-03-27T17:15:27.440Z,102140.16
2019-03-27T17:18:24.392Z,102148.98
2019-03-27T17:25:21.817Z,102152.08
2019-03-27T17:28:05.197Z,102146.33
2019-03-27T17:30:59.733Z,102150.30
2019-03-27T17:33:33.063Z,102152.05
2019-03-27T17:40:09.029Z,102154.66
2019-03-27T17:43:06.536Z,102156.91
2019-03-27T17:45:41.492Z,102165.21
2019-03-27T17:48:32.185Z,102169.14
2019-03-27T17:51:22.244Z,102170.88
2019-03-27T18:04:07.365Z,102166.48
2019-03-27T18:06:49.396Z,102164.63
2019-03-27T18:09:52.284Z,102176.03
2019-03-27T18:12:50.164Z,102173.03
2019-03-27T18:16:34.951Z,102178.45
2019-03-27T18:20:47.153Z,102172.09
2019-03-27T18:24:05.237Z,102180.91
2019-03-27T18:27:08.122Z,102181.23
2019-03-27T18:29:48.643Z,102183.73
2019-03-27T18:33:07.484Z,102178.46
2019-03-27T18:35:44.481Z,102181.52
2019-03-27T18:39:07.621Z,102190.26
2019-03-27T18:41:48.164Z,102186.22
2019-03-27T21:09:10.662Z,102190.41
2019-03-27T21:11:46.595Z,102187.33
2019-03-27T21:14:21.414Z,102193.11
2019-03-27T21:16:54.271Z,102185.22
2019-03-27T21:19:27.262Z,102186.08
2019-03-27T21:22:01.649Z,102185.14
2019-03-27T21:24:34.498Z,102183.37
2019-03-27T21:27:09.716Z,102189.63
2019-03-27T21:29:42.561Z,102193.62
2019-03-27T21:32:16.372Z,102193.63
2019-03-27T21:34:51.642Z,102193.63
2019-03-27T21:37:24.532Z,102195.89
2019-03-27T21:39:57.423Z,102196.75
2019-03-27T21:42:30.244Z,102196.23
2019-03-27T21:45:03.207Z,102194.84
2019-03-27T21:47:36.319Z,102199.28
2019-03-27T21:50:17.282Z,102197.53
2019-03-27T21:53:00.389Z,102200.09
2019-03-27T21:55:41.862Z,102205.38
2019-03-27T21:58:03.122Z,102198.39
2019-03-27T22:00:42.770Z,102203.27
2019-03-27T22:03:15.696Z,102202.39
2019-03-27T22:05:48.534Z,102206.83
2019-03-27T22:08:21.429Z,102209.02
2019-03-27T22:10:54.091Z,102205.54
2019-03-27T22:13:26.807Z,102206.37
2019-03-27T22:15:59.441Z,102201.60
2019-03-27T22:18:32.256Z,102207.23
2019-03-27T22:21:05.177Z,102129.69
2019-03-27T22:23:38.266Z,102204.58
2019-03-27T22:26:10.945Z,102199.75
2019-03-27T22:28:43.937Z,102201.94
2019-03-27T22:31:16.773Z,102198.00
2019-03-27T22:33:49.566Z,102201.08
2019-03-27T22:36:22.626Z,102200.19
2019-03-27T22:38:55.521Z,102196.73
2019-03-27T22:41:28.213Z,102194.95
2019-03-27T22:44:00.938Z,102200.20
2019-03-27T22:46:34.831Z,102203.78
2019-03-27T22:49:07.528Z,102200.34
2019-03-27T22:51:40.460Z,102207.41
2019-03-27T22:54:13.155Z,102211.31
2019-03-27T22:56:45.845Z,102212.29
2019-03-27T22:59:18.653Z,102205.27
2019-03-27T23:01:51.365Z,102211.07
2019-03-27T23:04:24.533Z,102210.09
2019-03-27T23:06:57.259Z,102212.30
2019-03-27T23:09:29.905Z,102211.84
2019-03-27T23:12:02.667Z,102202.13
2019-03-27T23:14:35.353Z,102201.69
2019-03-27T23:17:08.113Z,102203.33
2019-03-27T23:19:40.877Z,102200.26
2019-03-27T23:22:13.630Z,102199.31
2019-03-27T23:24:46.441Z,102199.75
2019-03-27T23:27:19.245Z,102202.40
2019-03-27T23:29:52.069Z,102199.73
2019-03-27T23:32:24.961Z,102201.09
2019-03-27T23:34:57.754Z,102201.55
2019-03-27T23:37:31.565Z,102202.30
2019-03-27T23:40:05.189Z,102200.45
2019-03-27T23:42:37.973Z,102204.53
2019-03-27T23:45:11.793Z,102199.78
2019-03-27T23:47:44.748Z,102201.49
2019-03-27T23:50:17.549Z,102200.00
2019-03-27T23:52:50.212Z,102196.09
2019-03-27T23:55:22.925Z,102200.98
2019-03-27T23:57:55.629Z,102200.94
